Time,TemperatureF,DewpointF,PressureIn,WindDirection,WindDirectionDegrees,WindSpeedMPH,WindSpeedGustMPH,Humidity,HourlyPrecipIn,Conditions,Clouds,dailyrainin,SoftwareType,DateUTC
2013-07-19 00:00:00,50.0,35.0,-100.00,North,-999,-999.0,-999.0,56,-99.99,,,0.00,,2013-07-19 06:00:00,
2013-07-19 01:00:00,49.0,34.0,-100.00,North,-999,-999.0,-999.0,56,-99.99,,,-99.99,,2013-07-19 07:00:00,
2013-07-19 01:53:00,49.0,34.0,-100.00,North,-999,-999.0,-999.0,56,-99.99,,,-99.99,,2013-07-19 07:53:00,
2013-07-19 02:00:00,49.0,34.0,-100.00,North,-999,-999.0,-999.0,57,-99.99,,,-99.99,,2013-07-19 08:00:00,
2013-07-19 03:00:00,48.0,33.0,-100.00,North,-999,-999.0,-999.0,56,-99.99,,,0.00,,2013-07-19 09:00:00,
2013-07-19 03:52:00,48.0,33.0,-100.00,North,-999,-999.0,-999.0,56,-99.99,,,0.00,,2013-07-19 09:52:00,
2013-07-19 04:00:00,47.0,33.0,-100.00,North,-999,-999.0,-999.0,57,-99.99,,,0.00,,2013-07-19 10:00:00,
2013-07-19 04:52:00,47.0,33.0,-100.00,North,-999,-999.0,-999.0,57,-99.99,,,0.00,,2013-07-19 10:52:00,
2013-07-19 05:00:00,46.0,32.0,-100.00,North,-999,-999.0,-999.0,57,-99.99,,,-99.99,,2013-07-19 11:00:00,
2013-07-19 05:52:00,46.0,32.0,-100.00,North,-999,-999.0,-999.0,57,-99.99,,,-99.99,,2013-07-19 11:52:00,
2013-07-19 06:00:00,45.0,31.0,-100.00,North,-999,-999.0,-999.0,57,-99.99,,,0.00,,2013-07-19 12:00:00,
2013-07-19 06:52:00,45.0,31.0,-100.00,North,-999,-999.0,-999.0,57,-99.99,,,0.00,,2013-07-19 12:52:00,
2013-07-19 07:00:00,48.0,33.0,-100.00,North,-999,-999.0,-999.0,57,-99.99,,,0.00,,2013-07-19 13:00:00,
2013-07-19 07:53:00,48.0,33.0,-100.00,North,-999,-999.0,-999.0,57,-99.99,,,0.00,,2013-07-19 13:53:00,
2013-07-19 08:00:00,57.0,42.0,-100.00,North,-999,-999.0,-999.0,57,-99.99,,,0.00,,2013-07-19 14:00:00,
2013-07-19 08:53:00,57.0,42.0,-100.00,North,-999,-999.0,-999.0,57,-99.99,,,0.00,,2013-07-19 14:53:00,
2013-07-19 09:00:00,61.0,45.0,-100.00,North,-999,-999.0,-999.0,56,-99.99,,,0.00,,2013-07-19 15:00:00,
2013-07-19 09:52:00,61.0,45.0,-100.00,North,-999,-999.0,-999.0,56,-99.99,,,0.00,,2013-07-19 15:52:00,
2013-07-19 10:00:00,64.0,48.0,-100.00,North,-999,-999.0,-999.0,56,-99.99,,,0.00,,2013-07-19 16:00:00,
2013-07-19 10:53:00,64.0,48.0,-100.00,North,-999,-999.0,-999.0,56,-99.99,,,0.00,,2013-07-19 16:53:00,
2013-07-19 11:00:00,66.0,50.0,-100.00,North,-999,-999.0,-999.0,56,-99.99,,,0.00,,2013-07-19 17:00:00,
2013-07-19 12:00:00,69.0,52.0,-100.00,North,-999,-999.0,-999.0,56,-99.99,,,0.00,,2013-07-19 18:00:00,
2013-07-19 12:52:00,69.0,52.0,-100.00,North,-999,-999.0,-999.0,56,-99.99,,,0.00,,2013-07-19 18:52:00,
2013-07-19 13:00:00,65.0,49.0,-100.00,North,-999,-999.0,-999.0,55,-99.99,,,0.00,,2013-07-19 19:00:00,
2013-07-19 13:52:00,65.0,49.0,-100.00,North,-999,-999.0,-999.0,55,-99.99,,,0.00,,2013-07-19 19:52:00,
2013-07-19 14:00:00,62.0,46.0,-100.00,North,-999,-999.0,-999.0,55,-99.99,,,0.00,,2013-07-19 20:00:00,
2013-07-19 14:52:00,62.0,46.0,-100.00,North,-999,-999.0,-999.0,55,-99.99,,,0.00,,2013-07-19 20:52:00,
2013-07-19 15:00:00,68.0,52.0,-100.00,North,-999,-999.0,-999.0,55,-99.99,,,-99.99,,2013-07-19 21:00:00,
2013-07-19 15:52:00,68.0,52.0,-100.00,North,-999,-999.0,-999.0,55,-99.99,,,-99.99,,2013-07-19 21:52:00,
2013-07-19 16:00:00,72.0,55.0,-100.00,North,-999,-999.0,-999.0,55,-99.99,,,-99.99,,2013-07-19 22:00:00,
2013-07-19 16:43:00,72.0,55.0,-100.00,North,-999,-999.0,-999.0,55,-99.99,,,-99.99,,2013-07-19 22:43:00,
2013-07-19 17:00:00,62.0,45.0,-100.00,North,-999,-999.0,-999.0,55,-99.99,,,-99.99,,2013-07-19 23:00:00,
2013-07-19 17:52:00,62.0,45.0,-100.00,North,-999,-999.0,-999.0,55,-99.99,,,-99.99,,2013-07-19 23:52:00,
2013-07-19 18:00:00,64.0,47.0,-100.00,North,-999,-999.0,-999.0,55,-99.99,,,0.00,,2013-07-20 00:00:00,
2013-07-19 18:52:00,64.0,47.0,-100.00,North,-999,-999.0,-999.0,55,-99.99,,,0.00,,2013-07-20 00:52:00,
2013-07-19 19:00:00,58.0,42.0,-100.00,North,-999,-999.0,-999.0,55,-99.99,,,-99.99,,2013-07-20 01:00:00,
2013-07-19 19:52:00,58.0,42.0,-100.00,North,-999,-999.0,-999.0,55,-99.99,,,-99.99,,2013-07-20 01:52:00,
2013-07-19 20:00:00,56.0,41.0,-100.00,North,-999,-999.0,-999.0,56,-99.99,,,-99.99,,2013-07-20 02:00:00,
2013-07-19 20:52:00,56.0,41.0,-100.00,North,-999,-999.0,-999.0,56,-99.99,,,-99.99,,2013-07-20 02:52:00,
2013-07-19 21:00:00,53.0,38.0,-100.00,North,-999,-999.0,-999.0,56,-99.99,,,0.00,,2013-07-20 03:00:00,
2013-07-19 21:53:00,53.0,38.0,-100.00,North,-999,-999.0,-999.0,56,-99.99,,,0.00,,2013-07-20 03:53:00,
2013-07-19 22:00:00,51.0,36.0,-100.00,North,-999,-999.0,-999.0,56,-99.99,,,-99.99,,2013-07-20 04:00:00,
2013-07-19 23:00:00,50.0,34.0,-100.00,North,-999,-999.0,-999.0,56,-99.99,,,-99.99,,2013-07-20 05:00:00,
2013-07-19 23:52:00,50.0,34.0,-100.00,North,-999,-999.0,-999.0,56,-99.99,,,-99.99,,2013-07-20 05:52:00,